Time;durP1;ratioP1;P1;durP2;ratioP2;P2;SDS_P1;SDS_P2;PMS_P1;PMS_P2;Temp;Humidity;BMP_temperature;BMP_pressure;BME280_temperature;BME280_humidity;BME280_pressure;Samples;Min_cycle;Max_cycle;Signal;HPM_P1;HPM_P2
2024/01/20 00:01:10;;;;;;;8.60;5.90;;;;;;;0.60;69.48;99944.47;105675;1256;65967;-68
2024/01/20 00:03:37;;;;;;;10.60;6.20;;;;;;;0.59;69.49;99938.63;105827;1253;61209;-68
2024/01/20 00:06:05;;;;;;;9.20;5.90;;;;;;;0.59;69.47;99925.65;105755;1251;63979;-68
2024/01/20 00:08:32;;;;;;;9.60;6.20;;;;;;;0.58;69.36;99920.82;105941;1253;61295;-69
2024/01/20 00:10:59;;;;;;;8.70;6.10;;;;;;;0.56;69.33;99922.29;105455;1253;61276;-68
2024/01/20 00:13:26;;;;;;;8.70;5.70;;;;;;;0.54;69.34;99926.02;105623;1258;65965;-69
2024/01/20 00:15:54;;;;;;;8.00;5.70;;;;;;;0.54;69.35;99926.17;105504;1256;61318;-68
2024/01/20 00:18:21;;;;;;;8.10;4.90;;;;;;;0.55;69.32;99923.39;105721;1254;63735;-69
2024/01/20 00:20:49;;;;;;;8.30;5.50;;;;;;;0.55;69.30;99931.34;105532;1254;61392;-68
2024/01/20 00:23:17;;;;;;;9.90;5.40;;;;;;;0.54;69.37;99945.41;105552;1253;59951;-69
2024/01/20 00:25:45;;;;;;;9.40;5.60;;;;;;;0.53;69.36;99954.11;105766;1256;65911;-69
2024/01/20 00:28:12;;;;;;;8.40;5.90;;;;;;;0.52;69.35;99961.98;105413;1253;61259;-69
2024/01/20 00:30:39;;;;;;;7.60;5.60;;;;;;;0.52;69.31;99964.92;105633;1256;63853;-68
2024/01/20 00:33:09;;;;;;;9.00;5.70;;;;;;;0.51;69.34;99973.95;105699;1254;61343;-68
2024/01/20 00:35:36;;;;;;;7.40;4.80;;;;;;;0.52;69.31;99973.75;105761;1254;61274;-69
2024/01/20 00:38:03;;;;;;;7.20;5.20;;;;;;;0.54;69.32;99970.36;105565;1252;66111;-68
2024/01/20 00:40:30;;;;;;;7.90;5.00;;;;;;;0.55;69.34;99961.30;105839;1251;61745;-69
2024/01/20 00:42:57;;;;;;;8.00;5.20;;;;;;;0.54;69.25;99957.02;105449;1259;64016;-68
2024/01/20 00:45:24;;;;;;;7.70;4.40;;;;;;;0.53;69.25;99945.97;105480;1253;61322;-67
2024/01/20 00:47:51;;;;;;;7.40;4.50;;;;;;;0.53;69.21;99946.16;105721;1253;61212;-69
2024/01/20 00:50:18;;;;;;;6.40;4.30;;;;;;;0.52;69.11;99963.31;105687;1256;66007;-69
2024/01/20 00:52:45;;;;;;;8.40;4.70;;;;;;;0.52;69.15;99978.44;105896;1254;61337;-67
2024/01/20 00:55:12;;;;;;;5.80;3.90;;;;;;;0.53;69.07;100002.27;105655;1253;63828;-68
2024/01/20 00:57:39;;;;;;;7.50;4.30;;;;;;;0.53;68.98;100005.55;105582;1253;61320;-69
2024/01/20 01:00:09;;;;;;;6.10;4.00;;;;;;;0.11;69.84;100004.42;105563;1251;61298;-69
2024/01/20 01:02:37;;;;;;;5.20;3.80;;;;;;;-0.18;70.65;100009.66;105636;1260;67667;-69
2024/01/20 01:05:05;;;;;;;6.30;3.70;;;;;;;-0.24;70.93;100021.48;105682;1256;61293;-69
2024/01/20 01:07:33;;;;;;;5.50;3.80;;;;;;;-0.25;71.07;100034.34;105903;1256;63999;-67
2024/01/20 01:10:00;;;;;;;5.50;3.30;;;;;;;-0.26;71.14;100040.97;105618;1253;61331;-68
2024/01/20 01:12:27;;;;;;;5.30;3.30;;;;;;;-0.27;71.14;100038.26;105528;1252;61345;-70
2024/01/20 01:14:54;;;;;;;4.70;2.90;;;;;;;-0.28;71.19;100037.23;105654;1256;65850;-67
2024/01/20 01:17:21;;;;;;;4.70;3.20;;;;;;;-0.30;71.23;100032.96;105652;1253;61108;-68
2024/01/20 01:19:49;;;;;;;5.60;3.20;;;;;;;-0.31;71.32;100026.09;105531;1258;63819;-68
2024/01/20 01:22:16;;;;;;;7.80;3.20;;;;;;;-0.31;71.35;100025.05;105695;1253;61178;-69
2024/01/20 01:24:43;;;;;;;4.50;2.90;;;;;;;-0.31;71.34;100024.70;105723;1256;61247;-70
2024/01/20 01:27:10;;;;;;;4.90;2.90;;;;;;;-0.32;71.39;100022.48;105692;1256;65804;-68
2024/01/20 01:29:36;;;;;;;5.00;2.80;;;;;;;-0.32;71.39;100018.33;105613;1253;61344;-70
2024/01/20 01:32:04;;;;;;;5.40;3.40;;;;;;;-0.32;71.36;100011.27;105570;1256;63831;-68
2024/01/20 01:34:31;;;;;;;6.10;3.50;;;;;;;-0.33;71.25;100003.17;105594;1253;61250;-67
2024/01/20 01:36:58;;;;;;;5.40;3.60;;;;;;;-0.33;71.25;100010.44;105617;1252;61354;-69
2024/01/20 01:39:25;;;;;;;6.60;3.90;;;;;;;-0.34;71.17;100027.06;105477;1258;65999;-69
2024/01/20 01:41:52;;;;;;;4.80;3.40;;;;;;;-0.36;71.11;100040.48;105532;1253;61278;-69
2024/01/20 01:44:19;;;;;;;5.40;3.80;;;;;;;-0.37;71.06;100040.38;105450;1254;63821;-69
2024/01/20 01:46:46;;;;;;;5.80;3.70;;;;;;;-0.37;71.02;100049.90;105622;1254;62600;-69
2024/01/20 01:49:13;;;;;;;6.20;4.00;;;;;;;-0.36;70.95;100065.57;105275;1256;61502;-68
2024/01/20 01:51:40;;;;;;;6.10;3.50;;;;;;;-0.37;70.84;100075.46;105576;1258;65896;-68
2024/01/20 01:54:07;;;;;;;8.80;4.90;;;;;;;-0.38;70.72;100082.07;105516;1255;61314;-67
2024/01/20 01:56:34;;;;;;;7.60;4.00;;;;;;;-0.36;70.70;100085.98;105551;1253;63689;-68
2024/01/20 01:59:01;;;;;;;7.90;4.20;;;;;;;-0.35;70.64;100087.99;105609;1254;61238;-69
2024/01/20 02:01:28;;;;;;;7.50;4.30;;;;;;;-0.34;70.63;100084.17;105597;1254;61266;-69
2024/01/20 02:03:55;;;;;;;7.50;4.90;;;;;;;-0.33;70.62;100084.47;105857;1254;64863;-67
2024/01/20 02:06:22;;;;;;;8.70;4.60;;;;;;;-0.31;70.58;100083.86;105714;1253;61258;-68
2024/01/20 02:08:49;;;;;;;7.10;4.70;;;;;;;-0.29;70.62;100082.94;105500;1253;63897;-67
2024/01/20 02:11:16;;;;;;;8.00;4.60;;;;;;;-0.29;70.54;100087.61;105720;1256;61260;-67
2024/01/20 02:13:43;;;;;;;7.20;4.70;;;;;;;-0.30;70.36;100089.38;105733;1254;61321;-68
2024/01/20 02:16:10;;;;;;;8.90;5.10;;;;;;;-0.31;70.44;100092.52;105463;1258;66037;-67
2024/01/20 02:18:37;;;;;;;9.40;5.40;;;;;;;-0.32;70.32;100088.57;105579;1257;61347;-67
2024/01/20 02:21:05;;;;;;;8.40;5.10;;;;;;;-0.32;70.31;100075.77;105633;1253;63681;-67
2024/01/20 02:23:39;;;;;;;8.60;5.30;;;;;;;-0.32;70.28;100065.73;105633;1256;61681;-68
2024/01/20 02:26:06;;;;;;;9.00;5.40;;;;;;;-0.30;70.38;100056.85;105536;1256;61288;-69
2024/01/20 02:28:33;;;;;;;8.90;5.00;;;;;;;-0.29;70.31;100054.73;105881;1256;65707;-68
2024/01/20 02:31:00;;;;;;;8.00;5.40;;;;;;;-0.29;70.25;100052.66;105730;1256;61290;-68
2024/01/20 02:33:26;;;;;;;7.50;4.90;;;;;;;-0.29;70.14;100056.81;105731;1256;63951;-68
2024/01/20 02:35:53;;;;;;;9.60;5.30;;;;;;;-0.29;70.15;100059.41;105659;1256;61272;-68
2024/01/20 02:38:20;;;;;;;11.00;5.70;;;;;;;-0.30;70.05;100066.69;105400;1251;61282;-68
2024/01/20 02:40:48;;;;;;;9.70;5.70;;;;;;;-0.30;70.03;100075.15;105666;1257;65749;-69
2024/01/20 02:43:15;;;;;;;9.10;5.60;;;;;;;-0.28;69.99;100081.73;105571;1253;61267;-67
2024/01/20 02:45:42;;;;;;;9.60;5.70;;;;;;;-0.27;70.01;100092.74;105879;1256;63872;-69
2024/01/20 02:48:10;;;;;;;9.70;5.80;;;;;;;-0.26;69.97;100098.57;105839;1256;61409;-69
2024/01/20 02:50:37;;;;;;;11.40;5.60;;;;;;;-0.24;69.88;100108.55;105975;1256;61683;-69
2024/01/20 02:53:04;;;;;;;9.40;5.70;;;;;;;-0.24;69.91;100109.75;105540;1259;65982;-67
2024/01/20 02:55:32;;;;;;;10.50;5.70;;;;;;;-0.25;69.87;100116.17;105643;1257;61237;-68
2024/01/20 02:57:59;;;;;;;9.10;6.30;;;;;;;-0.25;69.80;100123.09;105618;1258;64009;-67
2024/01/20 03:00:28;;;;;;;10.70;6.40;;;;;;;-0.25;69.72;100127.08;105603;1258;61320;-68
2024/01/20 03:02:55;;;;;;;11.30;6.80;;;;;;;-0.25;69.75;100129.52;105961;1257;61224;-68
2024/01/20 03:05:22;;;;;;;10.90;6.80;;;;;;;-0.24;69.76;100132.25;105615;1259;65854;-68
2024/01/20 03:07:49;;;;;;;24.80;17.50;;;;;;;-0.23;69.70;100132.52;105630;1259;61310;-69
2024/01/20 03:10:16;;;;;;;22.80;14.80;;;;;;;-0.22;69.74;100129.74;105482;1257;63919;-69
2024/01/20 03:12:43;;;;;;;18.60;11.80;;;;;;;-0.19;69.67;100127.01;105559;1254;61221;-69
2024/01/20 03:15:10;;;;;;;15.70;10.30;;;;;;;-0.17;69.57;100136.30;105713;1253;61259;-67
2024/01/20 03:17:37;;;;;;;12.80;7.50;;;;;;;-0.21;69.59;100141.44;105865;1256;66509;-70
2024/01/20 03:20:05;;;;;;;12.90;8.70;;;;;;;-0.23;69.66;100141.86;105811;1256;61285;-69
2024/01/20 03:22:32;;;;;;;11.90;7.80;;;;;;;-0.22;69.71;100148.58;105778;1259;64068;-69
2024/01/20 03:24:59;;;;;;;11.30;7.80;;;;;;;-0.22;69.62;100145.98;105587;1253;61223;-69
2024/01/20 03:27:26;;;;;;;12.90;8.10;;;;;;;-0.22;69.58;100150.82;105789;1252;61246;-71
2024/01/20 03:29:53;;;;;;;11.40;7.90;;;;;;;-0.22;69.55;100152.02;105691;1257;66096;-68
2024/01/20 03:32:20;;;;;;;11.30;6.80;;;;;;;-0.21;69.58;100160.12;105723;1257;61226;-69
2024/01/20 03:34:47;;;;;;;10.60;6.80;;;;;;;-0.20;69.45;100165.27;105601;1252;63816;-69
2024/01/20 03:37:14;;;;;;;11.70;6.90;;;;;;;-0.21;69.45;100169.66;105728;1252;61175;-69
2024/01/20 03:39:41;;;;;;;10.60;6.60;;;;;;;-0.22;69.41;100170.20;105662;1254;61250;-69
2024/01/20 03:42:07;;;;;;;11.00;7.20;;;;;;;-0.22;69.34;100172.81;105743;1253;65997;-68
2024/01/20 03:44:34;;;;;;;14.20;8.20;;;;;;;-0.24;69.29;100177.40;105725;1254;61257;-69
2024/01/20 03:47:01;;;;;;;11.20;7.10;;;;;;;-0.25;69.23;100179.52;105849;1254;64019;-69
2024/01/20 03:49:28;;;;;;;22.10;14.00;;;;;;;-0.26;69.22;100181.98;105404;1253;315185;-69
2024/01/20 03:51:55;;;;;;;34.30;23.70;;;;;;;-0.27;69.27;100186.02;105830;1257;62910;-70
2024/01/20 03:54:22;;;;;;;22.70;15.20;;;;;;;-0.27;69.37;100188.08;105705;1256;66030;-68
2024/01/20 03:56:49;;;;;;;13.30;9.00;;;;;;;-0.26;69.25;100188.73;105742;1256;61285;-69
2024/01/20 03:59:16;;;;;;;12.40;8.80;;;;;;;-0.26;69.38;100198.05;105735;1255;63705;-69
2024/01/20 04:01:43;;;;;;;14.40;8.60;;;;;;;-0.25;69.30;100205.65;105473;1257;61227;-68
2024/01/20 04:04:11;;;;;;;12.60;8.30;;;;;;;-0.26;69.37;100206.20;105595;1259;61343;-69
2024/01/20 04:06:38;;;;;;;13.20;7.40;;;;;;;-0.26;69.38;100206.00;105870;1256;66016;-69
2024/01/20 04:09:05;;;;;;;14.40;8.80;;;;;;;-0.25;69.43;100208.23;105778;1256;61314;-69
2024/01/20 04:11:32;;;;;;;12.90;8.10;;;;;;;-0.26;69.44;100206.36;105676;1256;64023;-69
2024/01/20 04:13:59;;;;;;;14.60;8.30;;;;;;;-0.27;69.47;100211.76;105792;1256;61251;-70
2024/01/20 04:16:26;;;;;;;13.60;7.60;;;;;;;-0.28;69.57;100219.23;105878;1257;61259;-70
2024/01/20 04:18:53;;;;;;;14.50;8.50;;;;;;;-0.28;69.56;100224.45;105665;1259;65755;-69
2024/01/20 04:21:20;;;;;;;15.10;8.60;;;;;;;-0.31;69.63;100225.56;105825;1255;61251;-68
2024/01/20 04:23:47;;;;;;;14.50;8.40;;;;;;;-0.33;69.76;100232.73;105753;1256;63886;-69
2024/01/20 04:26:14;;;;;;;14.00;8.40;;;;;;;-0.33;69.81;100238.96;105767;1252;61415;-69
2024/01/20 04:28:42;;;;;;;13.20;8.70;;;;;;;-0.32;69.86;100244.63;105671;1253;61350;-71
2024/01/20 04:31:09;;;;;;;12.90;8.40;;;;;;;-0.32;69.90;100248.08;105755;1254;66530;-70
2024/01/20 04:33:36;;;;;;;14.00;8.20;;;;;;;-0.32;69.94;100243.25;105754;1252;61233;-68
2024/01/20 04:36:04;;;;;;;13.10;7.90;;;;;;;-0.33;69.94;100242.60;105549;1257;63840;-69
2024/01/20 04:38:31;;;;;;;12.80;8.90;;;;;;;-0.33;69.94;100242.42;105858;1251;61328;-70
2024/01/20 04:40:58;;;;;;;15.80;11.20;;;;;;;-0.33;70.00;100240.16;105933;1256;61264;-70
2024/01/20 04:43:27;;;;;;;13.50;9.30;;;;;;;-0.33;69.98;100246.77;105815;1256;66045;-67
2024/01/20 04:45:54;;;;;;;15.90;9.40;;;;;;;-0.34;69.89;100250.58;105678;1256;61347;-69
2024/01/20 04:48:21;;;;;;;13.10;8.30;;;;;;;-0.34;69.83;100257.35;105786;1252;64453;-69
2024/01/20 04:50:48;;;;;;;15.10;9.80;;;;;;;-0.35;69.92;100269.48;105567;1256;61262;-69
2024/01/20 04:53:15;;;;;;;11.00;7.70;;;;;;;-0.35;69.88;100275.19;105794;1252;61238;-69
2024/01/20 04:55:41;;;;;;;11.30;7.10;;;;;;;-0.35;69.78;100280.20;105567;1255;65946;-67
2024/01/20 04:58:09;;;;;;;12.00;7.20;;;;;;;-0.36;69.68;100283.72;105825;1257;61348;-69
2024/01/20 05:00:35;;;;;;;12.80;7.20;;;;;;;-0.37;69.64;100286.18;105872;1251;64464;-69
2024/01/20 05:03:03;;;;;;;13.90;9.00;;;;;;;-0.39;69.44;100290.73;105868;1254;61226;-68
2024/01/20 05:05:30;;;;;;;13.80;7.40;;;;;;;-0.41;69.38;100297.20;105676;1254;61231;-69
2024/01/20 05:07:57;;;;;;;12.10;7.10;;;;;;;-0.40;69.37;100306.87;105593;1252;65975;-70
2024/01/20 05:10:24;;;;;;;12.30;7.10;;;;;;;-0.40;69.39;100312.75;105656;1256;61351;-68
2024/01/20 05:12:53;;;;;;;10.10;6.30;;;;;;;-0.42;69.22;100313.33;105610;1254;63867;-69
2024/01/20 05:15:22;;;;;;;11.50;6.60;;;;;;;-0.43;69.12;100313.02;105733;1254;62147;-68
2024/01/20 05:17:49;;;;;;;10.70;6.80;;;;;;;-0.42;69.12;100314.55;105899;1252;61266;-70
2024/01/20 05:20:16;;;;;;;11.20;6.10;;;;;;;-0.43;69.04;100317.33;105896;1256;65720;-69
2024/01/20 05:22:42;;;;;;;9.20;6.10;;;;;;;-0.44;68.99;100318.77;105756;1254;61269;-70
2024/01/20 05:25:09;;;;;;;11.30;6.80;;;;;;;-0.45;68.90;100324.01;105672;1256;64046;-69
2024/01/20 05:27:37;;;;;;;10.20;6.30;;;;;;;-0.46;68.93;100321.97;105607;1256;61380;-69
2024/01/20 05:30:05;;;;;;;9.50;5.90;;;;;;;-0.47;68.81;100323.39;105697;1253;61212;-67
2024/01/20 05:32:32;;;;;;;10.20;6.90;;;;;;;-0.49;68.72;100329.83;105611;1258;66238;-68
2024/01/20 05:34:59;;;;;;;10.40;6.40;;;;;;;-0.51;68.67;100333.20;105679;1256;61343;-69
2024/01/20 05:37:26;;;;;;;10.70;7.20;;;;;;;-0.53;68.59;100337.79;105811;1252;63945;-69
2024/01/20 05:39:53;;;;;;;14.00;8.90;;;;;;;-0.55;68.57;100342.00;105710;1256;61314;-69
2024/01/20 05:42:20;;;;;;;12.40;7.90;;;;;;;-0.55;68.53;100346.86;105632;1251;61369;-68
2024/01/20 05:44:47;;;;;;;36.50;24.30;;;;;;;-0.57;68.45;100353.13;105821;1251;65853;-67
2024/01/20 05:47:14;;;;;;;16.40;9.60;;;;;;;-0.59;68.40;100357.48;105646;1257;61435;-69
2024/01/20 05:49:40;;;;;;;11.90;8.20;;;;;;;-0.60;68.35;100358.06;105825;1254;64470;-68
2024/01/20 05:52:07;;;;;;;11.20;7.00;;;;;;;-0.62;68.31;100363.67;105830;1253;61250;-69
2024/01/20 05:54:34;;;;;;;10.90;7.00;;;;;;;-0.63;68.35;100366.64;105870;1252;61325;-69
2024/01/20 05:57:02;;;;;;;11.20;7.80;;;;;;;-0.64;68.36;100365.79;105657;1257;65982;-69
2024/01/20 05:59:28;;;;;;;13.80;9.20;;;;;;;-0.66;68.33;100372.61;105883;1252;61889;-69
2024/01/20 06:01:55;;;;;;;18.20;11.90;;;;;;;-0.68;68.29;100372.84;105654;1257;64008;-69
2024/01/20 06:04:22;;;;;;;13.50;8.30;;;;;;;-0.69;68.29;100374.27;105880;1252;61231;-69
2024/01/20 06:06:49;;;;;;;13.30;8.20;;;;;;;-0.72;68.24;100380.27;105648;1257;61415;-69
2024/01/20 06:09:16;;;;;;;13.70;8.10;;;;;;;-0.74;68.29;100383.45;105802;1256;66028;-68
2024/01/20 06:11:43;;;;;;;12.20;7.10;;;;;;;-0.75;68.31;100391.61;105833;1251;61356;-68
2024/01/20 06:14:10;;;;;;;12.00;7.50;;;;;;;-0.77;68.30;100397.52;105660;1256;64044;-69
2024/01/20 06:16:38;;;;;;;12.10;7.50;;;;;;;-0.78;68.34;100397.02;105455;1251;61325;-70
2024/01/20 06:19:06;;;;;;;13.20;8.00;;;;;;;-0.79;68.39;100401.05;105691;1258;61264;-69
2024/01/20 06:21:33;;;;;;;13.00;7.80;;;;;;;-0.79;68.40;100403.31;105584;1256;65949;-70
2024/01/20 06:24:00;;;;;;;12.50;7.60;;;;;;;-0.80;68.44;100405.23;105755;1251;62641;-69
2024/01/20 06:26:27;;;;;;;11.80;7.90;;;;;;;-0.81;68.49;100410.63;105542;1256;63873;-69
2024/01/20 06:28:55;;;;;;;14.60;8.00;;;;;;;-0.80;68.62;100416.14;105661;1258;61356;-70
2024/01/20 06:31:22;;;;;;;12.90;8.40;;;;;;;-0.80;68.76;100424.59;105922;1251;61263;-69
2024/01/20 06:33:50;;;;;;;13.00;7.90;;;;;;;-0.78;68.77;100433.36;105639;1257;65981;-69
2024/01/20 06:36:18;;;;;;;11.90;8.20;;;;;;;-0.76;68.88;100438.65;105631;1258;61308;-66
2024/01/20 06:38:45;;;;;;;13.30;8.50;;;;;;;-0.73;69.04;100437.35;105619;1253;63892;-67
2024/01/20 06:41:12;;;;;;;18.80;12.70;;;;;;;-0.70;69.16;100435.16;105593;1257;61365;-68
2024/01/20 06:43:39;;;;;;;15.10;10.60;;;;;;;-0.68;69.12;100438.58;105884;1254;61394;-68
2024/01/20 06:46:07;;;;;;;22.10;13.40;;;;;;;-0.67;69.21;100444.23;105709;1254;66268;-69
2024/01/20 06:48:34;;;;;;;27.20;15.50;;;;;;;-0.66;69.26;100445.58;105668;1258;61330;-69
2024/01/20 06:51:03;;;;;;;22.90;12.90;;;;;;;-0.64;69.35;100457.44;105712;1251;63844;-69
2024/01/20 06:53:30;;;;;;;31.50;16.00;;;;;;;-0.61;69.32;100469.62;105645;1258;61108;-69
2024/01/20 06:55:57;;;;;;;18.00;11.10;;;;;;;-0.58;69.34;100469.04;105773;1255;61324;-70
2024/01/20 06:58:24;;;;;;;40.00;19.80;;;;;;;-0.56;69.25;100470.89;105719;1254;66060;-69
2024/01/20 07:00:51;;;;;;;33.00;16.30;;;;;;;-0.55;69.26;100473.44;105730;1251;61272;-68
2024/01/20 07:03:19;;;;;;;30.00;14.90;;;;;;;-0.53;69.23;100475.10;105413;1254;63982;-69
2024/01/20 07:05:46;;;;;;;28.70;14.70;;;;;;;-0.50;69.17;100479.33;105752;1254;61158;-70
2024/01/20 07:08:14;;;;;;;42.50;19.60;;;;;;;-0.48;69.25;100486.35;105527;1254;61254;-68
2024/01/20 07:10:42;;;;;;;26.80;14.70;;;;;;;-0.44;69.27;100494.88;105562;1254;67817;-69
2024/01/20 07:13:09;;;;;;;31.30;16.40;;;;;;;-0.41;69.12;100499.08;105811;1251;61251;-68
2024/01/20 07:15:36;;;;;;;26.90;15.90;;;;;;;-0.40;68.77;100499.05;105709;1256;65551;-68
2024/01/20 07:18:03;;;;;;;30.00;15.20;;;;;;;-0.40;68.60;100502.67;105639;1254;61317;-69
2024/01/20 07:20:30;;;;;;;23.40;12.20;;;;;;;-0.38;68.53;100508.50;105516;1253;61220;-69
2024/01/20 07:22:57;;;;;;;41.50;20.90;;;;;;;-0.34;68.53;100508.73;105474;1254;66010;-68
2024/01/20 07:25:25;;;;;;;27.20;14.00;;;;;;;-0.30;68.40;100512.91;105701;1251;61141;-69
2024/01/20 07:27:52;;;;;;;44.90;20.70;;;;;;;-0.27;68.28;100519.77;105550;1256;63999;-68
2024/01/20 07:30:18;;;;;;;24.90;14.10;;;;;;;-0.23;68.33;100526.00;105487;1253;61164;-68
2024/01/20 07:32:45;;;;;;;18.30;11.20;;;;;;;-0.19;68.12;100527.79;105513;1254;61256;-70
2024/01/20 07:35:13;;;;;;;15.80;9.70;;;;;;;-0.18;67.97;100532.59;105722;1251;64674;-69
2024/01/20 07:37:41;;;;;;;14.40;9.60;;;;;;;-0.16;67.81;100534.44;105652;1251;61320;-67
2024/01/20 07:40:09;;;;;;;14.80;8.70;;;;;;;-0.13;67.78;100542.81;105720;1251;63825;-68
2024/01/20 07:42:36;;;;;;;14.40;9.20;;;;;;;-0.11;67.76;100545.86;105696;1251;61215;-71
2024/01/20 07:45:04;;;;;;;12.00;7.80;;;;;;;-0.10;67.76;100545.13;105603;1257;61266;-68
2024/01/20 07:47:32;;;;;;;12.20;8.60;;;;;;;-0.09;67.56;100547.71;105542;1252;64805;-69
2024/01/20 07:50:00;;;;;;;13.70;8.60;;;;;;;-0.10;67.54;100552.41;105764;1251;61244;-68
2024/01/20 07:52:27;;;;;;;14.50;9.50;;;;;;;-0.10;67.53;100554.30;105421;1251;63696;-72
2024/01/20 07:54:54;;;;;;;15.10;9.60;;;;;;;-0.09;67.45;100556.38;105563;1254;61274;-70
2024/01/20 07:57:21;;;;;;;13.80;9.40;;;;;;;-0.08;67.51;100562.06;105308;1261;61135;-71
2024/01/20 07:59:48;;;;;;;14.80;9.70;;;;;;;-0.07;67.51;100566.15;105847;1251;66045;-71
2024/01/20 08:02:15;;;;;;;15.50;9.70;;;;;;;-0.07;67.24;100570.82;105623;1254;61266;-69
2024/01/20 08:04:42;;;;;;;16.70;10.40;;;;;;;-0.10;67.13;100575.10;105881;1251;63746;-70
2024/01/20 08:07:09;;;;;;;19.30;11.20;;;;;;;-0.16;67.07;100584.63;105448;1251;61209;-73
2024/01/20 08:09:37;;;;;;;18.60;10.90;;;;;;;-0.19;67.11;100590.79;106074;1251;61344;-71
2024/01/20 08:12:04;;;;;;;16.90;11.10;;;;;;;-0.20;67.00;100590.81;106180;1255;68018;-74
2024/01/20 08:14:31;;;;;;;17.40;11.50;;;;;;;-0.21;67.08;100589.13;106218;1251;61295;-74
2024/01/20 08:16:58;;;;;;;16.70;10.70;;;;;;;-0.21;67.12;100591.00;106164;1253;64472;-74
2024/01/20 08:19:25;;;;;;;16.30;10.20;;;;;;;-0.18;67.17;100592.13;105951;1254;61571;-71
2024/01/20 08:21:51;;;;;;;16.80;10.80;;;;;;;-0.16;67.22;100596.56;106179;1256;61167;-72
2024/01/20 08:24:18;;;;;;;20.50;12.30;;;;;;;-0.17;67.13;100600.07;105727;1252;65782;-73
2024/01/20 08:26:46;;;;;;;17.90;11.30;;;;;;;-0.21;66.94;100608.34;105757;1251;61266;-72
2024/01/20 08:29:13;;;;;;;17.10;11.00;;;;;;;-0.26;66.96;100610.39;105669;1252;63894;-77
2024/01/20 08:31:40;;;;;;;17.20;11.00;;;;;;;-0.28;67.04;100611.84;105507;1251;61263;-72
2024/01/20 08:34:07;;;;;;;16.20;11.00;;;;;;;-0.29;66.96;100612.72;105564;1251;61199;-73
2024/01/20 08:36:34;;;;;;;16.60;11.60;;;;;;;-0.31;66.97;100607.75;106003;1251;66011;-72
2024/01/20 08:39:01;;;;;;;15.50;10.80;;;;;;;-0.32;67.01;100604.85;105484;1251;61196;-71
2024/01/20 08:41:29;;;;;;;21.20;12.40;;;;;;;-0.33;66.92;100608.52;106116;1251;63985;-69
2024/01/20 08:43:57;;;;;;;17.80;11.20;;;;;;;-0.40;66.82;100610.30;105781;1254;61735;-71
2024/01/20 08:46:27;;;;;;;18.90;11.80;;;;;;;-0.45;66.82;100610.81;105723;1252;61248;-69
2024/01/20 08:48:54;;;;;;;18.20;11.10;;;;;;;-0.47;66.82;100611.58;105775;1251;66057;-70
2024/01/20 08:51:21;;;;;;;17.30;11.60;;;;;;;-0.51;66.86;100615.65;105640;1256;61299;-70
2024/01/20 08:53:51;;;;;;;18.90;11.70;;;;;;;-0.53;66.96;100616.23;105539;1251;62492;-69
2024/01/20 08:56:17;;;;;;;18.20;12.00;;;;;;;-0.54;66.99;100617.14;105704;1251;61336;-70
2024/01/20 08:58:45;;;;;;;18.50;11.40;;;;;;;-0.55;67.11;100621.33;105727;1257;61208;-70
2024/01/20 09:01:12;;;;;;;19.60;11.90;;;;;;;-0.57;67.10;100623.96;105411;1252;64712;-71
2024/01/20 09:03:39;;;;;;;19.10;11.80;;;;;;;-0.61;67.01;100625.80;105887;1251;61219;-71
2024/01/20 09:06:07;;;;;;;19.40;11.80;;;;;;;-0.63;67.08;100626.55;105713;1260;64006;-71
2024/01/20 09:08:34;;;;;;;17.10;11.50;;;;;;;-0.66;67.02;100625.95;105854;1257;61292;-72
2024/01/20 09:11:02;;;;;;;17.90;11.40;;;;;;;-0.71;67.03;100627.98;105847;1254;61341;-69
2024/01/20 09:13:29;;;;;;;20.70;12.70;;;;;;;-0.74;67.04;100634.67;105697;1255;65921;-71
2024/01/20 09:15:58;;;;;;;16.50;11.10;;;;;;;-0.76;67.09;100635.08;105807;1257;61269;-71
2024/01/20 09:18:28;;;;;;;20.60;11.80;;;;;;;-0.76;67.23;100636.28;105877;1252;62807;-71
2024/01/20 09:20:55;;;;;;;18.40;11.10;;;;;;;-0.74;67.30;100638.80;105680;1254;61122;-71
2024/01/20 09:23:22;;;;;;;19.20;11.70;;;;;;;-0.74;67.26;100637.59;105581;1251;61264;-72
2024/01/20 09:25:49;;;;;;;19.40;12.50;;;;;;;-0.73;67.27;100643.45;106072;1252;65808;-69
2024/01/20 09:28:17;;;;;;;19.60;12.20;;;;;;;-0.70;67.36;100648.36;105677;1251;61342;-72
2024/01/20 09:30:44;;;;;;;18.70;11.00;;;;;;;-0.67;67.43;100651.40;105681;1251;64130;-72
2024/01/20 09:33:11;;;;;;;17.00;10.40;;;;;;;-0.64;67.40;100653.55;105437;1258;61247;-69
2024/01/20 09:35:38;;;;;;;18.40;11.70;;;;;;;-0.64;67.15;100655.12;105617;1251;61366;-69
2024/01/20 09:38:05;;;;;;;19.50;12.20;;;;;;;-0.65;67.01;100654.80;105544;1258;66161;-69
2024/01/20 09:40:35;;;;;;;18.20;10.80;;;;;;;-0.66;67.03;100658.83;105530;1251;61331;-68
2024/01/20 09:43:02;;;;;;;20.40;12.40;;;;;;;-0.66;66.91;100664.89;105483;1257;63873;-71
2024/01/20 09:45:30;;;;;;;20.40;11.90;;;;;;;-0.67;66.87;100671.12;106160;1253;61379;-69
2024/01/20 09:47:57;;;;;;;18.40;11.60;;;;;;;-0.67;66.89;100669.92;105627;1256;61257;-70
2024/01/20 09:50:24;;;;;;;17.90;10.70;;;;;;;-0.66;66.88;100666.93;105933;1259;65780;-68
2024/01/20 09:52:59;;;;;;;16.70;10.70;;;;;;;-0.65;66.67;100667.77;105240;1254;61883;-69
2024/01/20 09:55:27;;;;;;;20.40;11.90;;;;;;;-0.65;66.38;100669.69;106283;1252;66545;-69
2024/01/20 09:57:55;;;;;;;18.40;11.20;;;;;;;-0.67;66.19;100666.27;105552;1254;61247;-70
2024/01/20 10:00:23;;;;;;;19.30;11.50;;;;;;;-0.67;66.10;100662.64;105651;1251;61231;-69
2024/01/20 10:02:51;;;;;;;17.10;10.10;;;;;;;-0.63;66.00;100661.14;105650;1254;64545;-69
2024/01/20 10:05:18;;;;;;;24.00;12.60;;;;;;;-0.60;65.74;100659.64;105537;1254;61367;-70
2024/01/20 10:07:45;;;;;;;17.20;9.60;;;;;;;-0.53;65.82;100657.38;105329;1255;63990;-69
2024/01/20 10:10:21;;;;;;;15.40;8.30;;;;;;;-0.44;65.60;100660.07;105587;1251;61436;-68
2024/01/20 10:12:53;;;;;;;12.20;7.50;;;;;;;-0.35;65.32;100659.27;105561;1254;61221;-68
2024/01/20 10:15:26;;;;;;;14.90;9.70;;;;;;;-0.27;65.07;100655.40;105524;1251;64796;-69
2024/01/20 10:18:08;;;;;;;17.70;9.20;;;;;;;-0.19;64.65;100654.81;105826;1255;61243;-70
2024/01/20 10:20:47;;;;;;;19.40;9.20;;;;;;;-0.12;64.46;100656.14;105708;1251;65070;-69
2024/01/20 10:23:20;;;;;;;15.80;8.40;;;;;;;-0.05;63.79;100657.33;105755;1257;61324;-69
2024/01/20 10:25:46;;;;;;;25.80;11.70;;;;;;;-0.04;63.42;100658.65;105626;1253;61247;-69
2024/01/20 10:28:13;;;;;;;15.00;7.80;;;;;;;0.00;63.29;100662.01;105481;1254;66791;-70
2024/01/20 10:30:41;;;;;;;15.50;7.70;;;;;;;0.00;62.71;100662.70;105619;1251;61331;-68
2024/01/20 10:33:08;;;;;;;12.40;7.30;;;;;;;-0.01;62.66;100668.77;105532;1251;64587;-67
2024/01/20 10:35:38;;;;;;;12.50;6.20;;;;;;;0.01;62.43;100671.51;105497;1258;61353;-70
2024/01/20 10:38:12;;;;;;;10.90;6.20;;;;;;;0.01;62.23;100675.48;105772;1251;61263;-69
2024/01/20 10:40:42;;;;;;;12.80;7.00;;;;;;;-0.00;61.95;100674.32;106270;1257;67822;-70
2024/01/20 10:43:12;;;;;;;10.50;6.60;;;;;;;-0.03;61.79;100677.49;105528;1253;61309;-70
2024/01/20 10:46:00;;;;;;;8.90;5.60;;;;;;;-0.04;61.63;100681.16;105673;1253;63808;-69
2024/01/20 10:49:01;;;;;;;11.20;6.50;;;;;;;-0.04;61.55;100688.25;106180;1251;61334;-69
2024/01/20 10:51:34;;;;;;;10.00;6.10;;;;;;;-0.03;61.44;100691.52;105673;1258;61128;-71
2024/01/20 10:54:10;;;;;;;8.20;5.60;;;;;;;-0.04;61.36;100688.61;106210;1251;66468;-69
2024/01/20 10:56:42;;;;;;;12.00;6.40;;;;;;;-0.04;61.46;100687.05;105807;1251;61285;-69
2024/01/20 10:59:17;;;;;;;10.40;6.30;;;;;;;-0.05;61.13;100687.95;106339;1251;65669;-69
2024/01/20 11:01:47;;;;;;;8.40;5.50;;;;;;;-0.09;61.10;100684.77;106039;1253;61329;-70
2024/01/20 11:04:19;;;;;;;11.80;6.40;;;;;;;-0.10;61.07;100684.12;106324;1252;61241;-70
2024/01/20 11:06:51;;;;;;;10.50;6.70;;;;;;;-0.11;61.00;100683.64;105823;1251;67914;-69
2024/01/20 11:09:25;;;;;;;9.70;6.00;;;;;;;-0.13;60.87;100680.95;107524;1256;61439;-70
2024/01/20 11:12:08;;;;;;;10.10;6.20;;;;;;;-0.15;60.96;100682.73;106490;1251;64847;-71